createdAt,value
2023-03-01T00:01:22.231Z,25.67
2023-03-01T00:03:50.501Z,25.20
2023-03-01T00:06:18.565Z,25.17
2023-03-01T00:08:46.719Z,25.50
2023-03-01T00:11:16.482Z,25.70
2023-03-01T00:13:45.323Z,25.20
2023-03-01T00:16:15.817Z,25.80
2023-03-01T00:18:45.361Z,26.03
2023-03-01T00:21:13.695Z,24.50
2023-03-01T00:23:42.034Z,26.17
2023-03-01T00:26:11.900Z,26.07
2023-03-01T00:28:42.068Z,26.43
2023-03-01T00:31:12.682Z,23.80
2023-03-01T00:33:40.796Z,24.03
2023-03-01T00:36:12.336Z,25.00
2023-03-01T00:38:41.832Z,24.67
2023-03-01T00:41:11.553Z,24.80
2023-03-01T00:43:39.709Z,24.57
2023-03-01T00:46:09.840Z,24.13
2023-03-01T00:48:38.519Z,24.97
2023-03-01T00:51:07.757Z,26.10
2023-03-01T00:53:37.651Z,23.70
2023-03-01T00:56:08.032Z,23.60
2023-03-01T00:58:36.564Z,24.10
2023-03-01T01:01:17.951Z,25.00
2023-03-01T01:03:48.233Z,24.50
2023-03-01T01:06:21.003Z,23.93
2023-03-01T01:08:51.511Z,24.50
2023-03-01T01:11:20.145Z,24.37
2023-03-01T01:13:49.446Z,25.40
2023-03-01T01:16:19.329Z,23.37
2023-03-01T01:18:47.712Z,25.33
2023-03-01T01:21:18.250Z,24.63
2023-03-01T01:23:47.210Z,22.70
2023-03-01T01:26:18.926Z,24.07
2023-03-01T01:28:46.949Z,23.23
2023-03-01T01:31:15.546Z,24.40
2023-03-01T01:33:43.979Z,24.23
2023-03-01T01:36:12.644Z,23.23
2023-03-01T01:38:40.960Z,23.83
2023-03-01T01:41:09.221Z,25.83
2023-03-01T01:43:41.869Z,25.20
2023-03-01T01:46:21.255Z,26.07
2023-03-01T01:48:55.755Z,26.50
2023-03-01T01:51:29.802Z,26.17
2023-03-01T01:54:02.371Z,26.37
2023-03-01T01:56:32.039Z,25.77
2023-03-01T01:59:01.596Z,26.13
2023-03-01T02:01:29.688Z,26.87
2023-03-01T02:03:57.827Z,24.60
2023-03-01T02:06:30.715Z,25.03
2023-03-01T02:09:01.892Z,25.20
2023-03-01T02:11:31.773Z,24.63
2023-03-01T02:14:01.088Z,24.93
2023-03-01T02:16:30.429Z,25.03
2023-03-01T02:18:59.898Z,23.60
2023-03-01T02:21:38.062Z,24.73
2023-03-01T02:24:15.422Z,24.53
2023-03-01T02:26:49.245Z,24.13
2023-03-01T02:29:18.648Z,26.10
2023-03-01T02:31:46.669Z,25.53
2023-03-01T02:34:17.156Z,24.37
2023-03-01T02:36:48.449Z,25.13
2023-03-01T02:39:20.655Z,25.23
2023-03-01T02:41:51.567Z,25.63
2023-03-01T02:44:21.147Z,25.73
2023-03-01T02:46:51.535Z,24.90
2023-03-01T02:49:28.931Z,25.90
2023-03-01T02:52:29.651Z,27.30
2023-03-01T02:55:02.788Z,24.83
2023-03-01T02:57:33.165Z,25.77
2023-03-01T03:00:09.168Z,26.00
2023-03-01T03:02:38.813Z,25.07
2023-03-01T03:05:13.321Z,26.70
2023-03-01T03:07:43.581Z,25.47
2023-03-01T03:10:13.683Z,25.67
2023-03-01T03:12:41.650Z,24.70
2023-03-01T03:15:13.770Z,25.67
2023-03-01T03:17:45.318Z,25.33
2023-03-01T03:20:19.811Z,25.73
2023-03-01T03:22:48.727Z,25.27
2023-03-01T03:25:17.289Z,24.50
2023-03-01T03:27:46.958Z,24.90
2023-03-01T03:30:18.379Z,24.27
2023-03-01T03:32:53.080Z,24.17
2023-03-01T03:35:22.431Z,25.37
2023-03-01T03:38:03.619Z,27.10
2023-03-01T03:40:34.722Z,25.50
2023-03-01T03:43:02.734Z,25.83
2023-03-01T03:45:34.282Z,26.17
2023-03-01T03:48:02.468Z,25.83
2023-03-01T03:50:30.927Z,25.37
2023-03-01T03:52:58.906Z,25.47
2023-03-01T03:55:31.423Z,25.83
2023-03-01T03:58:03.004Z,26.60
2023-03-01T04:00:32.311Z,26.30
2023-03-01T04:03:00.384Z,25.87
2023-03-01T04:05:29.530Z,25.43
2023-03-01T04:08:02.972Z,24.70
2023-03-01T04:10:32.741Z,23.80
2023-03-01T04:13:00.662Z,24.23
2023-03-01T04:15:29.273Z,25.63
2023-03-01T04:18:00.043Z,24.83
2023-03-01T04:20:30.114Z,25.97
2023-03-01T04:23:11.429Z,25.67
2023-03-01T04:25:41.051Z,26.40
2023-03-01T04:28:09.441Z,28.53
2023-03-01T04:30:37.909Z,26.33
2023-03-01T04:33:08.829Z,25.47
2023-03-01T04:35:38.636Z,24.37
2023-03-01T04:38:07.376Z,25.37
2023-03-01T04:40:35.395Z,24.20
2023-03-01T04:43:03.868Z,24.57
2023-03-01T04:45:33.388Z,25.17
2023-03-01T04:48:01.412Z,25.17
2023-03-01T04:50:30.812Z,24.60
2023-03-01T04:53:00.179Z,23.37
2023-03-01T04:55:28.973Z,24.50
2023-03-01T04:57:57.449Z,25.60
2023-03-01T05:00:25.942Z,26.37
2023-03-01T05:02:55.849Z,25.33
2023-03-01T05:05:26.798Z,25.47
2023-03-01T05:07:58.284Z,25.00
2023-03-01T05:10:27.086Z,25.50
2023-03-01T05:12:55.051Z,24.60
2023-03-01T05:15:26.507Z,24.60
2023-03-01T05:17:56.063Z,25.07
2023-03-01T05:20:24.896Z,27.07
2023-03-01T05:22:53.803Z,25.90
2023-03-01T05:25:23.305Z,26.20
2023-03-01T05:27:51.238Z,25.50
2023-03-01T05:30:20.715Z,25.23
2023-03-01T05:32:50.040Z,25.60
2023-03-01T05:35:20.109Z,27.37
2023-03-01T05:37:49.720Z,26.70
2023-03-01T05:40:19.950Z,27.43
2023-03-01T05:42:50.412Z,27.37
2023-03-01T05:45:19.805Z,27.63
2023-03-01T05:47:49.190Z,26.93
2023-03-01T05:50:19.883Z,26.67
2023-03-01T05:52:49.392Z,27.47
2023-03-01T05:55:18.340Z,27.27
2023-03-01T05:57:46.839Z,27.07
2023-03-01T06:00:19.064Z,26.50
2023-03-01T06:02:47.250Z,27.23
2023-03-01T06:05:16.324Z,27.40
2023-03-01T06:07:44.926Z,27.93
2023-03-01T06:10:14.145Z,27.70
2023-03-01T06:12:44.573Z,27.40
2023-03-01T06:15:13.932Z,27.63
2023-03-01T06:17:44.606Z,28.13
2023-03-01T06:20:15.366Z,27.00
2023-03-01T06:22:43.933Z,27.30
2023-03-01T06:25:13.448Z,28.27
2023-03-01T06:27:41.640Z,28.17
2023-03-01T06:30:11.605Z,28.10
2023-03-01T06:32:42.975Z,29.10
2023-03-01T06:35:13.712Z,29.17
2023-03-01T06:37:42.198Z,29.07
2023-03-01T06:40:12.525Z,30.27
2023-03-01T06:42:42.938Z,28.90
2023-03-01T06:45:12.448Z,28.67
2023-03-01T06:47:40.433Z,28.90
2023-03-01T06:50:09.328Z,29.37
2023-03-01T06:52:38.686Z,28.53
2023-03-01T06:55:07.806Z,29.93
2023-03-01T06:57:35.822Z,28.03
2023-03-01T07:00:04.107Z,26.93
2023-03-01T07:02:32.022Z,26.23
2023-03-01T07:05:00.027Z,25.63
2023-03-01T07:07:27.984Z,25.40
2023-03-01T07:09:57.211Z,24.90
2023-03-01T07:12:25.108Z,24.27
2023-03-01T07:14:53.060Z,25.20
2023-03-01T07:17:20.973Z,24.70
2023-03-01T07:19:48.828Z,23.87
2023-03-01T07:22:16.757Z,22.33
2023-03-01T07:24:45.175Z,23.67
2023-03-01T07:27:14.454Z,22.50
2023-03-01T07:29:42.352Z,22.60
2023-03-01T07:32:11.675Z,24.23
2023-03-01T07:34:39.633Z,24.23
2023-03-01T07:37:07.554Z,23.13
2023-03-01T07:39:35.542Z,23.67
2023-03-01T07:42:03.420Z,23.03
2023-03-01T07:44:32.673Z,23.17
2023-03-01T07:47:00.578Z,20.50
2023-03-01T07:49:28.503Z,20.67
2023-03-01T07:51:57.108Z,19.47
2023-03-01T07:54:25.052Z,20.10
2023-03-01T07:56:53.051Z,19.30
2023-03-01T07:59:21.041Z,18.80
2023-03-01T08:01:50.327Z,17.80
2023-03-01T08:04:18.475Z,17.40
2023-03-01T08:06:46.463Z,26.20
2023-03-01T08:09:14.360Z,21.63
2023-03-01T08:11:42.339Z,18.53
2023-03-01T08:14:11.354Z,16.73
2023-03-01T08:16:39.662Z,15.43
2023-03-01T08:19:10.064Z,14.33
2023-03-01T08:21:38.652Z,14.93
2023-03-01T08:24:07.914Z,15.27
2023-03-01T08:26:36.136Z,14.07
2023-03-01T08:29:05.029Z,15.00
2023-03-01T08:31:36.354Z,15.57
2023-03-01T08:34:08.566Z,16.30
2023-03-01T08:36:41.657Z,17.37
2023-03-01T08:39:11.311Z,15.27
2023-03-01T08:41:39.620Z,16.67
2023-03-01T08:44:08.345Z,15.33
2023-03-01T08:46:38.947Z,16.80
2023-03-01T08:49:07.923Z,14.80
2023-03-01T08:51:37.799Z,16.03
2023-03-01T08:54:08.209Z,17.33
2023-03-01T08:56:36.231Z,15.73
2023-03-01T08:59:04.156Z,15.93
2023-03-01T09:01:32.240Z,16.40
2023-03-01T09:04:00.380Z,15.83
2023-03-01T09:06:28.359Z,16.83
2023-03-01T09:08:56.782Z,15.80
2023-03-01T09:11:26.166Z,16.93
2023-03-01T09:13:54.123Z,17.03
2023-03-01T09:16:23.395Z,16.17
2023-03-01T09:18:52.340Z,15.80
2023-03-01T09:21:30.614Z,15.77
2023-03-01T09:24:07.559Z,15.30
2023-03-01T09:26:36.885Z,14.83
2023-03-01T09:29:04.852Z,15.73
2023-03-01T09:31:32.888Z,15.37
2023-03-01T09:34:00.911Z,14.53
2023-03-01T09:36:29.974Z,15.97
2023-03-01T09:38:59.669Z,15.13
2023-03-01T09:41:48.017Z,15.43
2023-03-01T09:44:45.923Z,15.60
2023-03-01T09:47:19.831Z,14.73
2023-03-01T09:49:57.996Z,13.20
2023-03-01T09:52:31.749Z,13.60
2023-03-01T09:55:01.016Z,12.70
2023-03-01T09:57:38.281Z,13.23
2023-03-01T10:00:26.001Z,13.23
2023-03-01T10:03:02.765Z,12.60
2023-03-01T10:05:41.417Z,12.43
2023-03-01T10:08:37.377Z,12.90
2023-03-01T10:11:07.546Z,12.03
2023-03-01T10:13:50.239Z,12.30
2023-03-01T10:16:23.162Z,11.33
2023-03-01T10:18:58.143Z,11.83
2023-03-01T10:21:27.828Z,10.30
2023-03-01T10:23:56.946Z,10.60
2023-03-01T10:26:40.603Z,10.03
2023-03-01T10:29:11.985Z,12.70
2023-03-01T10:31:43.992Z,11.40
2023-03-01T10:34:14.269Z,10.63
2023-03-01T10:36:44.393Z,10.13
2023-03-01T10:39:18.511Z,9.93
2023-03-01T10:42:03.570Z,11.67
2023-03-01T10:44:53.595Z,10.60
2023-03-01T10:47:24.356Z,9.70
2023-03-01T10:50:04.679Z,9.37
2023-03-01T10:52:35.622Z,9.63
2023-03-01T10:55:22.027Z,9.37
2023-03-01T10:57:49.981Z,10.03
2023-03-01T11:00:26.360Z,10.90
2023-03-01T11:03:11.861Z,9.43
2023-03-01T11:05:54.502Z,8.80
2023-03-01T11:08:40.890Z,9.33
2023-03-01T11:11:33.584Z,9.27
2023-03-01T11:14:08.413Z,10.00
2023-03-01T11:16:44.470Z,9.10
2023-03-01T11:19:22.582Z,9.80
2023-03-01T11:21:59.705Z,9.70
2023-03-01T11:24:38.697Z,10.00
2023-03-01T11:27:16.622Z,10.47
2023-03-01T11:29:49.080Z,10.10
2023-03-01T11:32:19.961Z,10.47
2023-03-01T11:34:52.348Z,10.67
2023-03-01T11:37:34.300Z,11.10
2023-03-01T11:40:13.428Z,10.57
2023-03-01T11:42:54.293Z,10.90
2023-03-01T11:45:26.640Z,11.10
2023-03-01T11:48:09.267Z,11.40
2023-03-01T11:50:44.131Z,11.10
2023-03-01T11:53:51.792Z,12.20
2023-03-01T11:56:29.988Z,11.47
2023-03-01T11:59:25.245Z,11.60
2023-03-01T12:02:14.263Z,12.57
2023-03-01T12:05:11.116Z,12.43
2023-03-01T12:07:48.596Z,13.17
2023-03-01T12:10:25.756Z,14.23
2023-03-01T12:13:05.264Z,14.60
2023-03-01T12:15:57.862Z,14.90
2023-03-01T12:18:55.670Z,16.73
2023-03-01T12:21:37.096Z,13.57
2023-03-01T12:24:30.718Z,14.70
2023-03-01T12:27:12.785Z,13.87
2023-03-01T12:29:45.231Z,15.43
2023-03-01T12:32:40.573Z,16.33
2023-03-01T12:35:29.739Z,14.00
2023-03-01T12:38:07.122Z,14.73
2023-03-01T12:40:48.513Z,14.70
2023-03-01T12:43:28.933Z,13.17
2023-03-01T12:46:12.340Z,14.13
2023-03-01T12:48:47.918Z,13.40
2023-03-01T12:51:19.074Z,14.53
2023-03-01T12:53:51.502Z,14.03
2023-03-01T12:56:22.058Z,12.87
2023-03-01T12:59:00.822Z,13.87
2023-03-01T13:01:38.814Z,12.53
2023-03-01T13:04:19.372Z,12.97
2023-03-01T13:06:56.437Z,13.73
2023-03-01T13:09:35.524Z,14.00
2023-03-01T13:12:08.169Z,14.57
2023-03-01T13:14:48.225Z,14.00
2023-03-01T13:17:42.816Z,12.97
2023-03-01T13:20:18.723Z,13.03
2023-03-01T13:22:54.590Z,12.83
2023-03-01T13:25:27.673Z,12.90
2023-03-01T13:28:29.665Z,12.23
2023-03-01T13:30:57.667Z,13.77
2023-03-01T13:33:42.593Z,13.63
2023-03-01T13:36:14.260Z,12.73
2023-03-01T13:38:48.921Z,13.20
2023-03-01T13:41:19.987Z,13.17
2023-03-01T13:43:49.839Z,13.70
2023-03-01T13:46:22.172Z,13.83
2023-03-01T13:48:53.891Z,13.53
2023-03-01T13:51:26.752Z,13.17
2023-03-01T13:53:56.837Z,12.27
2023-03-01T13:56:29.399Z,12.97
2023-03-01T13:59:03.708Z,13.00
2023-03-01T14:01:34.116Z,13.00
2023-03-01T14:04:03.201Z,13.37
2023-03-01T14:06:33.269Z,13.37
2023-03-01T14:09:12.182Z,13.60
2023-03-01T14:12:00.439Z,14.13
2023-03-01T14:14:48.809Z,14.47
2023-03-01T14:17:51.462Z,15.50
2023-03-01T14:20:23.736Z,13.67
2023-03-01T14:22:55.132Z,15.03
2023-03-01T14:25:26.936Z,16.40
2023-03-01T14:28:04.638Z,15.57
2023-03-01T14:30:38.031Z,15.63
2023-03-01T14:33:08.869Z,14.70
2023-03-01T14:35:38.168Z,16.13
2023-03-01T14:38:06.326Z,16.00
2023-03-01T14:40:35.883Z,15.87
2023-03-01T14:43:13.346Z,16.80
2023-03-01T14:45:41.508Z,16.23
2023-03-01T14:48:09.872Z,15.77
2023-03-01T14:50:43.470Z,15.27
2023-03-01T14:53:19.976Z,17.73
2023-03-01T14:55:52.612Z,16.13
2023-03-01T14:58:23.985Z,16.27
2023-03-01T15:00:57.461Z,15.63
2023-03-01T15:03:33.172Z,15.97
2023-03-01T15:06:03.043Z,16.27
2023-03-01T15:08:34.024Z,16.97
2023-03-01T15:11:04.321Z,16.07
2023-03-01T15:13:35.766Z,15.33
2023-03-01T15:16:09.631Z,14.50
2023-03-01T15:18:38.674Z,14.90
2023-03-01T15:21:11.778Z,15.17
2023-03-01T15:23:42.136Z,15.93
2023-03-01T15:26:25.435Z,15.40
2023-03-01T15:28:59.477Z,16.57
2023-03-01T15:31:29.714Z,16.70
2023-03-01T15:34:23.136Z,17.13
2023-03-01T15:36:52.774Z,19.83
2023-03-01T15:39:39.727Z,19.40
2023-03-01T15:42:11.128Z,17.50
2023-03-01T15:44:44.127Z,18.63
2023-03-01T15:47:27.221Z,18.40
2023-03-01T15:49:56.875Z,19.33
2023-03-01T15:52:30.104Z,18.87
2023-03-01T15:55:19.407Z,18.93
2023-03-01T15:57:48.041Z,18.77
2023-03-01T16:00:18.672Z,18.53
2023-03-01T16:02:47.338Z,18.10
2023-03-01T16:05:20.888Z,20.77
2023-03-01T16:07:48.852Z,21.90
2023-03-01T16:10:17.181Z,27.27
2023-03-01T16:12:45.161Z,32.53
2023-03-01T16:15:19.463Z,33.00
2023-03-01T16:17:47.941Z,33.37
2023-03-01T16:20:28.368Z,34.33
2023-03-01T16:23:00.991Z,39.23
2023-03-01T16:25:29.675Z,46.30
2023-03-01T16:27:59.505Z,43.20
2023-03-01T16:30:29.581Z,49.57
2023-03-01T16:32:57.854Z,49.07
2023-03-01T16:35:25.939Z,44.87
2023-03-01T16:37:54.838Z,43.83
2023-03-01T16:40:25.486Z,41.00
2023-03-01T16:42:53.461Z,34.33
2023-03-01T16:45:24.594Z,31.77
2023-03-01T16:47:55.945Z,30.27
2023-03-01T16:50:24.351Z,30.07
2023-03-01T16:52:52.650Z,33.63
2023-03-01T16:55:20.755Z,33.83
2023-03-01T16:57:48.975Z,31.33
2023-03-01T17:00:18.751Z,27.60
2023-03-01T17:02:46.722Z,25.97
2023-03-01T17:05:16.095Z,24.70
2023-03-01T17:07:44.335Z,24.20
2023-03-01T17:10:13.076Z,24.13
2023-03-01T17:12:48.134Z,23.17
2023-03-01T17:15:16.999Z,22.93
2023-03-01T17:17:44.960Z,22.37
2023-03-01T17:20:14.951Z,23.73
2023-03-01T17:22:42.992Z,23.87
2023-03-01T17:25:11.616Z,22.63
2023-03-01T17:27:40.762Z,23.90
2023-03-01T17:30:11.682Z,24.50
2023-03-01T17:32:40.217Z,24.63
2023-03-01T17:35:11.997Z,25.70
2023-03-01T17:37:46.548Z,26.07
2023-03-01T17:40:15.156Z,22.47
2023-03-01T17:42:43.203Z,22.97
2023-03-01T17:45:11.875Z,23.00
2023-03-01T17:47:40.023Z,24.80
2023-03-01T17:50:09.214Z,23.93
2023-03-01T17:52:37.582Z,22.83
2023-03-01T17:55:08.044Z,22.63
2023-03-01T17:57:36.009Z,22.80
2023-03-01T18:00:05.539Z,22.53
2023-03-01T18:02:40.035Z,21.47
2023-03-01T18:05:08.974Z,20.87
2023-03-01T18:07:37.447Z,21.67
2023-03-01T18:10:07.860Z,23.77
2023-03-01T18:12:38.092Z,25.00
2023-03-01T18:15:06.964Z,23.77
2023-03-01T18:17:35.074Z,22.57
2023-03-01T18:20:03.358Z,22.93
2023-03-01T18:22:33.147Z,23.87
2023-03-01T18:25:01.156Z,22.67
2023-03-01T18:27:31.790Z,23.17
2023-03-01T18:30:00.537Z,21.57
2023-03-01T18:32:29.406Z,21.67
2023-03-01T18:34:57.492Z,22.40
2023-03-01T18:37:25.495Z,22.77
2023-03-01T18:39:54.115Z,22.30
2023-03-01T18:42:23.091Z,23.43
2023-03-01T18:44:53.910Z,24.03
2023-03-01T18:47:22.183Z,25.77
2023-03-01T18:49:50.592Z,24.33
2023-03-01T18:52:18.805Z,23.47
2023-03-01T18:54:47.225Z,23.13
2023-03-01T18:57:15.250Z,22.30
2023-03-01T18:59:43.436Z,22.43
2023-03-01T19:02:40.849Z,23.37
2023-03-01T19:05:10.164Z,23.03
2023-03-01T19:07:38.237Z,23.30
2023-03-01T19:10:07.160Z,23.80
2023-03-01T19:12:36.949Z,27.23
2023-03-01T19:15:05.912Z,32.33
2023-03-01T19:17:34.756Z,32.47
2023-03-01T19:20:05.581Z,37.20
2023-03-01T19:22:33.710Z,34.77
2023-03-01T19:25:01.973Z,35.20
2023-03-01T19:27:30.345Z,34.03
2023-03-01T19:29:58.750Z,33.63
2023-03-01T19:32:27.300Z,34.73
2023-03-01T19:34:55.852Z,33.40
2023-03-01T19:37:25.586Z,32.40
2023-03-01T19:39:54.096Z,33.63
2023-03-01T19:42:26.735Z,33.00
2023-03-01T19:44:54.843Z,33.43
2023-03-01T19:47:22.951Z,34.20
2023-03-01T19:49:51.489Z,33.53
2023-03-01T19:52:20.121Z,32.43
2023-03-01T19:54:51.949Z,32.30
2023-03-01T19:57:22.197Z,30.13
2023-03-01T19:59:50.539Z,31.17
2023-03-01T20:02:18.923Z,30.90
2023-03-01T20:04:56.201Z,29.00
2023-03-01T20:07:25.071Z,26.17
2023-03-01T20:09:55.126Z,26.93
2023-03-01T20:12:23.313Z,27.60
2023-03-01T20:14:55.423Z,27.07
2023-03-01T20:17:23.886Z,25.93
2023-03-01T20:19:52.028Z,25.70
2023-03-01T20:22:20.635Z,26.17
2023-03-01T20:24:48.614Z,24.97
2023-03-01T20:27:17.916Z,26.47
2023-03-01T20:29:46.360Z,26.83
2023-03-01T20:32:15.040Z,27.43
2023-03-01T20:34:42.973Z,27.90
2023-03-01T20:37:10.989Z,28.73
2023-03-01T20:39:39.034Z,29.70
2023-03-01T20:42:19.309Z,29.70
2023-03-01T20:44:49.741Z,27.67
2023-03-01T20:47:20.516Z,28.67
2023-03-01T20:49:51.387Z,27.50
2023-03-01T20:52:19.386Z,27.90
2023-03-01T20:54:47.375Z,28.50
2023-03-01T20:57:15.361Z,28.30
2023-03-01T20:59:43.327Z,28.67
2023-03-01T21:02:12.960Z,28.33
2023-03-01T21:04:41.113Z,27.77
2023-03-01T21:07:09.020Z,28.10
2023-03-01T21:09:36.963Z,29.93
2023-03-01T21:12:05.207Z,29.67
2023-03-01T21:14:42.380Z,29.97
2023-03-01T21:17:12.674Z,29.83
2023-03-01T21:19:43.650Z,29.13
2023-03-01T21:22:12.304Z,31.03
2023-03-01T21:24:40.466Z,29.87
2023-03-01T21:27:08.519Z,33.97
2023-03-01T21:29:39.538Z,36.93
2023-03-01T21:32:09.005Z,34.23
2023-03-01T21:34:39.166Z,34.03
2023-03-01T21:37:08.486Z,38.13
2023-03-01T21:39:36.476Z,42.87
2023-03-01T21:42:05.733Z,40.67
2023-03-01T21:44:34.747Z,43.23
2023-03-01T21:47:02.702Z,46.07
2023-03-01T21:49:30.680Z,43.97
2023-03-01T21:51:59.968Z,42.57
2023-03-01T21:54:28.486Z,41.87
2023-03-01T21:56:56.379Z,40.97
2023-03-01T21:59:25.414Z,39.80
2023-03-01T22:01:53.683Z,36.77
2023-03-01T22:04:24.592Z,33.80
2023-03-01T22:06:54.555Z,34.43
2023-03-01T22:09:24.812Z,32.73
2023-03-01T22:11:58.288Z,30.50
2023-03-01T22:14:27.306Z,31.27
2023-03-01T22:16:55.477Z,31.63
2023-03-01T22:19:24.131Z,33.37
2023-03-01T22:21:53.539Z,34.67
2023-03-01T22:24:25.249Z,35.63
2023-03-01T22:26:54.781Z,36.07
2023-03-01T22:29:24.883Z,35.00
2023-03-01T22:31:54.252Z,33.83
2023-03-01T22:34:22.631Z,34.10
2023-03-01T22:36:50.703Z,34.03
2023-03-01T22:39:20.371Z,36.30
2023-03-01T22:41:50.885Z,33.17
2023-03-01T22:44:21.586Z,31.43
2023-03-01T22:46:49.743Z,31.97
2023-03-01T22:49:18.835Z,31.17
2023-03-01T22:51:48.137Z,30.17
2023-03-01T22:54:17.492Z,30.33
2023-03-01T22:56:46.387Z,30.60
2023-03-01T22:59:19.011Z,29.60
2023-03-01T23:01:48.309Z,28.90
2023-03-01T23:04:16.728Z,30.37
2023-03-01T23:06:51.860Z,30.13
2023-03-01T23:09:21.145Z,29.83
2023-03-01T23:11:50.559Z,32.83
2023-03-01T23:14:21.177Z,31.30
2023-03-01T23:16:49.600Z,30.00
2023-03-01T23:19:17.640Z,28.60
2023-03-01T23:21:48.522Z,31.67
2023-03-01T23:24:17.059Z,33.20
2023-03-01T23:26:51.740Z,32.40
2023-03-01T23:29:21.291Z,31.57
2023-03-01T23:31:49.481Z,33.00
2023-03-01T23:34:17.490Z,40.90
2023-03-01T23:36:45.889Z,35.03
2023-03-01T23:39:15.348Z,33.60
2023-03-01T23:41:43.508Z,34.60
2023-03-01T23:44:16.078Z,33.00
2023-03-01T23:46:46.746Z,33.33
2023-03-01T23:49:16.202Z,33.37
2023-03-01T23:51:45.420Z,33.83
2023-03-01T23:54:14.998Z,32.60
2023-03-01T23:56:44.410Z,33.73
2023-03-01T23:59:14.738Z,32.17
